Strona główna
METAR-TAF:

METAR-TAF

Lotnisko :

Montes Claros, Minas Gerais, Brazylia

Szerokość geograficzna: 16-43S, Długość geograficzna: 043-52W, wysokość: 646 m

Aktualna obserwacja pogody

Raport powstał 2 godziny i 9 minut temu, godzina 17:00 UTC
Wiatr 6 kt z kierunków zmiennych
Temperatura 24°C
Wilgotność 38%
Ciśnienie 1019 hPa
Widzialność 10 km lub więcej
Brak chmur poniżej 1500 m i brak chmur cumulonimbus

METAR: SBMK 301700Z VRB06KT CAVOK 24/09 Q1019

czas: 16:09 (19:09 UTC)


TAF: brakujący

Obserwacja i prognoza pogody dla ponad 4000 lotnisk (raport METAR i TAF).

Dostępne stacje oznaczono żółtymi i czerwonymi punktami na mapie.

Najedź kursorem aby zobaczyć nazwę stacji.

Kliknij aby zobaczyć obserwacje i prognozy pogody.

Aby zmienić mapę: kliknij na zielony przycisk z czarnym krzyżykiem, aby powiększyć; na zielony przycisk z myślnikiem, aby pomniejszyć; na zielone strzałki, aby przejść do map sąsiednich.


METAR-TAF: